Time;durP1;ratioP1;P1;durP2;ratioP2;P2;SDS_P1;SDS_P2;PMS_P1;PMS_P2;Temp;Humidity;BMP_temperature;BMP_pressure;BME280_temperature;BME280_humidity;BME280_pressure;Samples;Min_cycle;Max_cycle;Signal;HPM_P1;HPM_P2
2023/10/06 00:00:33;;;;;;;10.47;9.60;;;12.70;99.90;;;;;;4896893;29;20549;-82
2023/10/06 00:03:05;;;;;;;10.07;9.37;;;12.80;99.90;;;;;;4891573;29;21336;-82
2023/10/06 00:05:44;;;;;;;9.13;8.63;;;12.80;99.90;;;;;;4896906;29;20554;-81
2023/10/06 00:08:17;;;;;;;10.27;9.47;;;12.80;99.90;;;;;;4890733;29;20493;-80
2023/10/06 00:10:51;;;;;;;10.07;9.20;;;12.80;99.90;;;;;;4882294;29;20451;-81
2023/10/06 00:13:29;;;;;;;9.57;8.97;;;12.80;99.90;;;;;;4892831;29;20467;-82
2023/10/06 00:16:11;;;;;;;9.77;8.87;;;12.70;99.90;;;;;;4888134;29;20455;-80
2023/10/06 00:18:39;;;;;;;10.10;9.40;;;12.70;99.90;;;;;;4892538;29;20522;-81
2023/10/06 00:21:25;;;;;;;9.43;8.80;;;12.70;99.90;;;;;;4897340;29;20480;-81
2023/10/06 00:24:00;;;;;;;9.73;9.03;;;12.60;99.90;;;;;;4892182;29;20548;-81
2023/10/06 00:26:28;;;;;;;9.90;9.30;;;12.70;99.90;;;;;;4890581;29;20970;-82
2023/10/06 00:29:03;;;;;;;9.53;8.90;;;12.60;99.90;;;;;;4891728;29;20483;-80
2023/10/06 00:31:48;;;;;;;9.93;9.30;;;12.60;99.90;;;;;;4889050;29;20483;-82
2023/10/06 00:34:30;;;;;;;9.93;9.20;;;12.60;99.90;;;;;;4892359;29;20523;-81
2023/10/06 00:37:11;;;;;;;10.63;9.30;;;12.60;99.90;;;;;;4894229;29;20489;-82
2023/10/06 00:39:39;;;;;;;8.67;8.10;;;12.50;99.90;;;;;;4890545;29;20475;-82
2023/10/06 00:42:15;;;;;;;10.00;9.13;;;12.50;99.90;;;;;;4891400;29;20463;-80
2023/10/06 00:44:53;;;;;;;9.73;9.03;;;12.50;99.90;;;;;;4890938;29;20475;-81
2023/10/06 00:47:23;;;;;;;10.30;9.30;;;12.50;99.90;;;;;;4893554;29;20515;-81
2023/10/06 00:49:55;;;;;;;9.73;8.93;;;12.50;99.90;;;;;;4889386;29;20455;-82
2023/10/06 00:52:25;;;;;;;9.43;8.93;;;12.40;99.90;;;;;;4888655;29;20518;-81
2023/10/06 00:54:54;;;;;;;9.33;8.73;;;12.40;99.90;;;;;;4891178;29;20498;-81
2023/10/06 00:57:24;;;;;;;10.70;9.70;;;12.30;99.90;;;;;;4890854;29;20486;-81
2023/10/06 00:59:55;;;;;;;9.83;9.20;;;12.30;99.90;;;;;;4888656;29;20868;-81
2023/10/06 01:02:23;;;;;;;10.50;9.63;;;12.30;99.90;;;;;;4888291;29;20462;-82
2023/10/06 01:04:53;;;;;;;10.10;9.50;;;12.30;99.90;;;;;;4888760;29;20473;-81
2023/10/06 01:07:24;;;;;;;10.70;9.70;;;12.30;99.90;;;;;;4890929;29;20501;-82
2023/10/06 01:09:56;;;;;;;10.87;9.80;;;12.30;99.90;;;;;;4890513;29;20455;-82
2023/10/06 01:12:26;;;;;;;10.57;9.77;;;12.20;99.90;;;;;;4893362;29;20542;-81
2023/10/06 01:15:05;;;;;;;9.37;8.70;;;12.20;99.90;;;;;;4889127;29;20470;-81
2023/10/06 01:17:34;;;;;;;9.90;9.10;;;12.20;99.90;;;;;;4892041;29;20968;-84
2023/10/06 01:20:02;;;;;;;9.73;9.10;;;12.20;99.90;;;;;;4892309;29;20479;-81
2023/10/06 01:22:41;;;;;;;11.70;10.80;;;12.10;99.90;;;;;;4893261;29;20491;-82
2023/10/06 01:25:13;;;;;;;10.50;9.70;;;12.10;99.90;;;;;;4893104;29;20467;-84
2023/10/06 01:27:44;;;;;;;10.13;9.37;;;12.20;99.90;;;;;;4890920;29;20475;-81
2023/10/06 01:30:19;;;;;;;10.73;9.73;;;12.10;99.90;;;;;;4894880;29;20447;-84
2023/10/06 01:32:50;;;;;;;9.90;9.10;;;12.10;1.00;;;;;;4893297;29;20510;-83
2023/10/06 01:35:23;;;;;;;9.60;9.00;;;12.20;99.90;;;;;;4886180;29;20467;-81
2023/10/06 01:37:58;;;;;;;9.93;9.07;;;12.20;99.90;;;;;;4893586;29;20474;-80
2023/10/06 01:40:43;;;;;;;9.43;8.70;;;12.10;99.90;;;;;;4891543;29;21008;-81
2023/10/06 01:43:14;;;;;;;10.03;9.43;;;12.20;99.90;;;;;;4890862;29;20462;-81
2023/10/06 01:45:44;;;;;;;9.30;8.70;;;12.10;99.90;;;;;;4889706;29;20495;-82
2023/10/06 01:48:29;;;;;;;8.73;8.13;;;12.10;99.90;;;;;;4896342;29;20542;-82
2023/10/06 01:50:58;;;;;;;9.70;9.10;;;12.10;99.90;;;;;;4893510;29;20458;-83
2023/10/06 01:53:32;;;;;;;9.90;8.97;;;12.10;99.90;;;;;;4894568;29;20463;-83
2023/10/06 01:56:06;;;;;;;9.40;8.80;;;12.00;99.90;;;;;;4894012;29;20455;-79
2023/10/06 01:58:39;;;;;;;9.23;8.43;;;12.00;99.90;;;;;;4892107;29;20483;-80
2023/10/06 02:01:18;;;;;;;9.50;8.80;;;11.90;99.90;;;;;;4893514;29;20486;-79
2023/10/06 02:03:49;;;;;;;10.67;9.77;;;11.90;99.90;;;;;;4893820;29;20581;-82
2023/10/06 02:06:17;;;;;;;9.50;8.73;;;11.90;99.90;;;;;;4891358;29;20491;-82
2023/10/06 02:08:54;;;;;;;9.60;8.83;;;11.90;99.90;;;;;;4896070;29;20455;-82
2023/10/06 02:11:30;;;;;;;9.53;8.93;;;11.90;99.90;;;;;;4898118;29;20462;-83
2023/10/06 02:13:59;;;;;;;11.37;10.30;;;11.90;99.90;;;;;;4895792;29;20557;-85
2023/10/06 02:16:30;;;;;;;9.90;9.20;;;11.90;99.90;;;;;;4893768;29;20467;-83
2023/10/06 02:18:58;;;;;;;9.43;8.80;;;11.90;99.90;;;;;;4895996;29;20490;-82
2023/10/06 02:21:29;;;;;;;10.30;9.60;;;11.80;99.90;;;;;;4895151;29;20494;-82
2023/10/06 02:24:04;;;;;;;9.70;9.20;;;11.80;99.90;;;;;;4894483;29;20447;-82
2023/10/06 02:26:36;;;;;;;10.50;9.70;;;11.80;99.90;;;;;;4895746;29;20462;-82
2023/10/06 02:29:15;;;;;;;10.97;10.27;;;11.80;99.90;;;;;;4893916;29;20519;-80
2023/10/06 02:31:54;;;;;;;9.23;8.50;;;11.80;99.90;;;;;;4894426;29;20458;-82
2023/10/06 02:34:29;;;;;;;9.80;9.07;;;11.70;99.90;;;;;;4891312;29;20499;-83
2023/10/06 02:37:00;;;;;;;9.73;8.93;;;11.70;99.90;;;;;;4890071;29;20479;-83
2023/10/06 02:39:33;;;;;;;10.13;9.30;;;11.70;99.90;;;;;;4907600;29;20468;-82
2023/10/06 02:42:09;;;;;;;9.83;9.20;;;11.70;99.90;;;;;;4895363;29;21219;-82
2023/10/06 02:44:40;;;;;;;10.80;9.90;;;11.70;99.90;;;;;;4895586;29;20470;-81
2023/10/06 02:47:10;;;;;;;9.27;8.67;;;11.80;99.90;;;;;;4895928;29;20487;-82
2023/10/06 02:49:48;;;;;;;9.83;9.13;;;11.80;99.90;;;;;;4896010;29;20514;-83
2023/10/06 02:52:20;;;;;;;10.00;9.30;;;11.70;99.90;;;;;;4896049;29;20486;-83
2023/10/06 02:55:04;;;;;;;10.40;9.50;;;11.60;99.90;;;;;;4893952;29;20474;-81
2023/10/06 02:57:36;;;;;;;10.80;9.90;;;11.60;99.90;;;;;;4897324;29;20591;-83
2023/10/06 03:02:47;;;;;;;10.50;9.63;;;11.60;99.90;;;;;;4894549;29;20515;-82
2023/10/06 03:05:17;;;;;;;9.03;8.40;;;11.50;99.90;;;;;;4891448;29;20474;-82
2023/10/06 03:07:46;;;;;;;9.10;8.50;;;11.50;99.90;;;;;;4895779;29;20483;-82
2023/10/06 03:10:18;;;;;;;10.33;9.47;;;11.50;99.90;;;;;;4889370;29;20471;-82
2023/10/06 03:12:46;;;;;;;10.83;9.70;;;11.50;99.90;;;;;;4897373;29;20479;-82
2023/10/06 03:15:34;;;;;;;9.83;9.20;;;11.40;99.90;;;;;;4895859;29;20473;-83
2023/10/06 03:18:06;;;;;;;10.20;9.37;;;11.40;99.90;;;;;;4908464;29;21206;-84
2023/10/06 03:20:47;;;;;;;10.73;9.90;;;11.50;99.90;;;;;;4892927;29;20463;-82
2023/10/06 03:26:13;;;;;;;12.43;11.33;;;11.40;99.90;;;;;;4891347;29;20868;-84
2023/10/06 03:28:43;;;;;;;9.30;8.70;;;11.40;99.90;;;;;;4895888;29;20487;-83
2023/10/06 03:31:22;;;;;;;9.67;9.07;;;11.40;99.90;;;;;;4895145;29;20455;-81
2023/10/06 03:33:54;;;;;;;9.90;9.10;;;11.40;99.90;;;;;;4895699;29;20519;-83
2023/10/06 03:36:36;;;;;;;10.47;9.57;;;11.40;99.90;;;;;;4894231;29;20463;-82
2023/10/06 03:39:10;;;;;;;9.40;8.77;;;11.40;99.90;;;;;;4896839;29;20431;-81
2023/10/06 03:41:46;;;;;;;9.97;9.30;;;11.40;99.90;;;;;;4894945;29;20475;-85
2023/10/06 03:44:24;;;;;;;10.00;9.30;;;11.50;99.90;;;;;;4892022;29;20482;-85
2023/10/06 03:46:53;;;;;;;10.27;9.50;;;11.40;99.90;;;;;;4894757;29;20501;-82
2023/10/06 03:49:22;;;;;;;11.80;10.20;;;11.50;99.90;;;;;;4895487;29;20917;-82
2023/10/06 03:51:51;;;;;;;9.83;9.23;;;11.40;99.90;;;;;;4892397;29;20513;-84
2023/10/06 03:54:26;;;;;;;9.70;9.10;;;11.40;99.90;;;;;;4904172;29;20477;-83
2023/10/06 03:56:58;;;;;;;10.23;9.43;;;11.40;99.90;;;;;;4890159;29;20839;-82
2023/10/06 03:59:29;;;;;;;9.23;8.73;;;11.40;99.90;;;;;;4888607;29;20527;-80
2023/10/06 04:01:57;;;;;;;9.73;9.10;;;11.40;99.90;;;;;;4888106;29;20475;-81
2023/10/06 04:04:26;;;;;;;11.03;10.17;;;11.40;99.90;;;;;;4888899;29;20443;-81
2023/10/06 04:06:57;;;;;;;9.50;8.90;;;11.30;99.90;;;;;;4886839;29;20574;-81
2023/10/06 04:12:47;;;;;;;11.33;9.70;;;11.20;99.90;;;;;;4883146;29;20481;-81
2023/10/06 04:15:19;;;;;;;10.30;9.60;;;11.10;99.90;;;;;;4886588;29;20455;-82
2023/10/06 04:17:47;;;;;;;10.30;9.50;;;11.20;99.90;;;;;;4888182;29;20487;-81
2023/10/06 04:20:17;;;;;;;10.53;9.83;;;11.20;99.90;;;;;;4892248;29;20462;-84
2023/10/06 04:22:45;;;;;;;10.63;9.93;;;11.30;99.90;;;;;;4892223;29;20547;-80
2023/10/06 04:25:16;;;;;;;10.67;9.70;;;11.20;99.90;;;;;;4889538;29;21024;-81
2023/10/06 04:27:46;;;;;;;11.60;10.60;;;11.20;99.90;;;;;;4886067;29;20491;-80
2023/10/06 04:30:14;;;;;;;10.13;9.50;;;11.20;1.00;;;;;;4887666;29;20463;-81
2023/10/06 04:32:42;;;;;;;11.10;10.23;;;11.30;1.00;;;;;;4886191;29;21083;-80
2023/10/06 04:35:19;;;;;;;10.40;9.60;;;11.30;1.00;;;;;;4889266;29;20506;-82
2023/10/06 04:38:09;;;;;;;11.07;10.23;;;11.30;1.00;;;;;;4891044;29;20491;-79
2023/10/06 04:40:38;;;;;;;11.37;10.50;;;11.40;1.00;;;;;;4891373;29;20451;-80
2023/10/06 04:43:09;;;;;;;10.57;9.67;;;11.40;1.00;;;;;;4886591;29;20486;-80
2023/10/06 04:45:38;;;;;;;11.17;9.93;;;11.40;1.00;;;;;;4884139;29;20470;-73
2023/10/06 04:48:08;;;;;;;9.97;9.27;;;11.50;1.00;;;;;;4887631;29;21252;-74
2023/10/06 04:50:36;;;;;;;11.30;10.40;;;11.50;99.90;;;;;;4881919;29;20463;-72
2023/10/06 04:53:06;;;;;;;11.50;10.50;;;11.40;99.90;;;;;;4885336;29;20551;-80
2023/10/06 04:55:37;;;;;;;10.10;9.40;;;11.30;99.90;;;;;;4887508;29;21212;-79
2023/10/06 04:58:06;;;;;;;10.93;10.03;;;11.30;1.00;;;;;;4886512;29;20562;-79
2023/10/06 05:00:36;;;;;;;11.40;10.60;;;11.30;99.90;;;;;;4882369;29;20510;-78
2023/10/06 05:03:06;;;;;;;10.57;9.70;;;11.30;1.00;;;;;;4887578;29;20483;-79
2023/10/06 05:05:37;;;;;;;10.33;9.80;;;11.30;99.90;;;;;;4885159;29;20451;-79
2023/10/06 05:08:09;;;;;;;10.27;9.43;;;11.20;99.90;;;;;;4883939;29;20491;-78
2023/10/06 05:10:39;;;;;;;10.97;10.07;;;11.20;99.90;;;;;;4887270;29;20455;-77
2023/10/06 05:13:10;;;;;;;11.20;10.27;;;11.20;1.00;;;;;;4886307;29;23110;-81
2023/10/06 05:15:41;;;;;;;10.80;10.00;;;11.10;1.00;;;;;;4881580;29;20463;-81
2023/10/06 05:18:15;;;;;;;11.20;10.40;;;11.00;1.00;;;;;;4884360;29;20491;-82
2023/10/06 05:20:44;;;;;;;11.17;10.30;;;11.10;99.90;;;;;;4883699;29;20519;-80
2023/10/06 05:23:15;;;;;;;11.30;10.30;;;11.10;99.90;;;;;;4881790;29;20478;-81
2023/10/06 05:25:45;;;;;;;13.35;12.27;;;11.10;99.90;;;;;;4885104;29;20459;-80
2023/10/06 05:28:17;;;;;;;13.10;11.90;;;10.90;1.00;;;;;;4885553;29;20242;-82
2023/10/06 05:30:48;;;;;;;12.80;11.67;;;11.20;1.00;;;;;;4888056;29;20705;-79
2023/10/06 05:33:17;;;;;;;14.10;11.60;;;11.20;1.00;;;;;;4889310;29;20456;-78
2023/10/06 05:35:46;;;;;;;12.53;11.63;;;11.40;1.00;;;;;;4890295;29;20467;-78
2023/10/06 05:38:14;;;;;;;12.10;11.07;;;11.40;1.00;;;;;;4891154;29;20489;-82
2023/10/06 05:40:44;;;;;;;12.17;11.37;;;11.40;1.00;;;;;;4892020;29;20782;-79
2023/10/06 05:43:12;;;;;;;12.27;11.40;;;11.40;1.00;;;;;;4892129;29;20566;-79
2023/10/06 05:45:42;;;;;;;13.50;12.40;;;11.30;1.00;;;;;;4891898;29;20473;-81
2023/10/06 05:48:12;;;;;;;16.53;12.17;;;11.30;1.00;;;;;;4890283;29;20490;-78
2023/10/06 05:50:41;;;;;;;11.83;10.80;;;11.30;1.00;;;;;;4883960;29;20463;-81
2023/10/06 05:53:12;;;;;;;10.90;10.03;;;11.20;1.00;;;;;;4890999;29;20463;-79
2023/10/06 05:55:42;;;;;;;11.53;10.47;;;11.20;1.00;;;;;;4890619;29;20518;-79
2023/10/06 05:58:15;;;;;;;12.67;11.40;;;11.10;1.00;;;;;;4892685;29;20481;-80
2023/10/06 06:00:52;;;;;;;12.50;11.30;;;11.20;99.90;;;;;;4892008;29;20455;-81
2023/10/06 06:03:23;;;;;;;11.00;9.80;;;11.20;99.90;;;;;;4891759;29;20569;-78
2023/10/06 06:05:53;;;;;;;11.63;10.53;;;11.20;1.00;;;;;;4888260;29;20465;-79
2023/10/06 06:08:21;;;;;;;11.53;10.60;;;11.20;1.00;;;;;;4889522;29;20522;-80
2023/10/06 06:10:50;;;;;;;10.80;10.10;;;11.20;1.00;;;;;;4890418;29;20558;-80
2023/10/06 06:13:18;;;;;;;11.47;10.50;;;11.20;1.00;;;;;;4888922;29;21028;-79
2023/10/06 06:15:50;;;;;;;11.90;10.87;;;11.30;1.00;;;;;;4881148;29;20754;-79
2023/10/06 06:18:18;;;;;;;10.50;9.73;;;11.30;1.00;;;;;;4890356;29;20849;-79
2023/10/06 06:20:47;;;;;;;10.50;9.53;;;11.30;1.00;;;;;;4891519;29;21341;-78
2023/10/06 06:23:16;;;;;;;11.10;10.20;;;11.30;1.00;;;;;;4891012;29;20689;-79
2023/10/06 06:25:45;;;;;;;10.47;9.87;;;11.30;1.00;;;;;;4889313;29;20543;-79
2023/10/06 06:28:14;;;;;;;11.60;10.73;;;11.40;1.00;;;;;;4890207;29;20491;-80
2023/10/06 06:30:42;;;;;;;11.20;10.30;;;11.40;1.00;;;;;;4891995;29;20452;-78
2023/10/06 06:33:13;;;;;;;11.97;10.87;;;11.40;1.00;;;;;;4888925;29;20463;-79
2023/10/06 06:35:42;;;;;;;11.23;10.43;;;11.40;1.00;;;;;;4891014;29;20811;-80
2023/10/06 06:38:12;;;;;;;11.00;10.20;;;11.50;1.00;;;;;;4886421;29;20475;-80
2023/10/06 06:40:42;;;;;;;11.50;10.70;;;11.50;1.00;;;;;;4891014;29;20977;-79
2023/10/06 06:43:10;;;;;;;12.63;11.43;;;11.60;1.00;;;;;;4889677;29;20507;-78
2023/10/06 06:45:41;;;;;;;12.30;11.50;;;11.60;1.00;;;;;;4888766;29;20467;-80
2023/10/06 06:48:12;;;;;;;11.57;10.60;;;11.60;1.00;;;;;;4880310;29;20478;-79
2023/10/06 06:50:43;;;;;;;13.70;12.50;;;11.70;1.00;;;;;;4886634;29;20479;-80
2023/10/06 06:53:13;;;;;;;12.57;11.77;;;11.60;1.00;;;;;;4882287;29;20581;-79
2023/10/06 06:55:41;;;;;;;12.27;11.30;;;11.80;1.00;;;;;;4885920;29;20471;-80
2023/10/06 06:58:11;;;;;;;11.90;11.10;;;11.90;1.00;;;;;;4887389;29;20474;-79
2023/10/06 07:00:40;;;;;;;11.80;10.67;;;12.00;1.00;;;;;;4888789;29;21023;-81
2023/10/06 07:03:10;;;;;;;13.43;12.43;;;12.00;1.00;;;;;;4880745;29;20488;-80
2023/10/06 07:05:40;;;;;;;13.43;12.23;;;11.90;1.00;;;;;;4887888;29;20218;-80
2023/10/06 07:08:08;;;;;;;12.87;11.53;;;12.10;1.00;;;;;;4888084;29;20510;-80
2023/10/06 07:10:46;;;;;;;14.10;13.10;;;12.30;1.00;;;;;;4888578;29;20538;-80
2023/10/06 07:13:15;;;;;;;12.67;11.80;;;12.40;1.00;;;;;;4887456;29;20475;-81
2023/10/06 07:15:44;;;;;;;14.13;12.73;;;12.50;1.00;;;;;;4887870;29;20467;-79
2023/10/06 07:18:14;;;;;;;13.97;12.97;;;12.60;1.00;;;;;;4890466;29;20839;-79
2023/10/06 07:20:44;;;;;;;14.40;12.97;;;12.70;1.00;;;;;;4890104;29;20470;-78
2023/10/06 07:23:12;;;;;;;13.30;12.30;;;12.80;1.00;;;;;;4890391;29;21041;-79
2023/10/06 07:25:42;;;;;;;13.90;12.80;;;13.00;1.00;;;;;;4889495;29;20554;-81
2023/10/06 07:28:12;;;;;;;14.63;13.33;;;13.10;1.00;;;;;;4888238;29;20558;-81
2023/10/06 07:30:41;;;;;;;13.87;12.77;;;13.20;1.00;;;;;;4889321;29;20550;-80
2023/10/06 07:33:09;;;;;;;14.80;13.30;;;13.50;1.00;;;;;;4889906;29;20451;-79
2023/10/06 07:35:41;;;;;;;16.03;14.60;;;13.70;1.00;;;;;;4889267;29;20467;-81
2023/10/06 07:38:10;;;;;;;14.40;13.40;;;14.00;1.00;;;;;;4889748;29;20479;-81
2023/10/06 07:40:42;;;;;;;15.13;13.90;;;14.30;1.00;;;;;;4889895;29;20469;-80
2023/10/06 07:43:12;;;;;;;15.50;14.30;;;14.80;99.90;;;;;;4888120;29;20554;-79
2023/10/06 07:45:41;;;;;;;16.30;15.03;;;15.20;99.90;;;;;;4888575;29;20455;-80
2023/10/06 07:48:09;;;;;;;16.60;14.77;;;15.60;99.90;;;;;;4889531;29;20483;-78
2023/10/06 07:50:38;;;;;;;16.03;14.63;;;16.10;99.90;;;;;;4887263;29;21460;-81
2023/10/06 07:53:07;;;;;;;16.10;14.80;;;16.50;99.90;;;;;;4887955;29;20516;-81
2023/10/06 07:55:36;;;;;;;15.73;14.30;;;16.90;99.90;;;;;;4887336;29;20239;-79
2023/10/06 07:58:08;;;;;;;15.20;14.20;;;17.30;99.90;;;;;;4888958;29;21043;-82
2023/10/06 08:00:38;;;;;;;14.47;13.30;;;17.70;99.90;;;;;;4897855;29;21289;-81
2023/10/06 08:03:07;;;;;;;12.97;12.20;;;18.00;99.90;;;;;;4896568;29;21024;-83
2023/10/06 08:05:38;;;;;;;14.50;13.50;;;18.40;99.90;;;;;;4896119;29;20483;-82
2023/10/06 08:08:07;;;;;;;13.00;11.90;;;18.70;99.90;;;;;;4889032;29;20498;-81
2023/10/06 08:10:36;;;;;;;12.60;11.30;;;19.10;99.90;;;;;;4895580;29;20467;-82
2023/10/06 08:13:07;;;;;;;12.97;11.77;;;19.50;99.90;;;;;;4895031;29;20527;-82
2023/10/06 08:15:40;;;;;;;12.63;11.33;;;19.80;99.90;;;;;;4894257;29;20469;-84
2023/10/06 08:18:08;;;;;;;12.23;11.00;;;20.20;99.90;;;;;;4894114;29;20483;-82
2023/10/06 08:20:40;;;;;;;11.27;10.37;;;20.60;99.90;;;;;;4894024;29;20481;-82
2023/10/06 08:23:08;;;;;;;10.37;9.30;;;20.80;99.90;;;;;;4896230;29;21049;-81
2023/10/06 08:25:36;;;;;;;10.10;9.37;;;21.00;99.90;;;;;;4894717;29;20486;-82
2023/10/06 08:28:26;;;;;;;10.30;9.43;;;21.10;99.90;;;;;;4893301;29;20474;-82
2023/10/06 08:30:54;;;;;;;9.60;8.80;;;21.60;99.90;;;;;;4891238;29;20836;-82
2023/10/06 08:33:25;;;;;;;10.70;9.70;;;21.90;99.90;;;;;;4894094;29;21267;-82
2023/10/06 08:35:59;;;;;;;9.47;8.60;;;22.30;99.90;;;;;;4897187;29;20459;-84
2023/10/06 08:38:29;;;;;;;9.60;8.70;;;22.50;99.90;;;;;;4896834;29;20507;-84
2023/10/06 08:41:02;;;;;;;10.30;9.00;;;22.60;99.90;;;;;;4898451;29;20456;-81
2023/10/06 08:43:36;;;;;;;8.17;7.40;;;22.90;99.90;;;;;;4895485;29;20539;-81
2023/10/06 08:46:04;;;;;;;9.13;8.33;;;23.10;99.90;;;;;;4895211;29;20467;-82
2023/10/06 08:48:35;;;;;;;8.03;7.23;;;23.40;99.90;;;;;;4897720;29;20508;-83
2023/10/06 08:51:07;;;;;;;9.17;7.00;;;23.70;99.90;;;;;;4892936;29;21145;-83
2023/10/06 08:53:38;;;;;;;8.20;7.40;;;24.00;99.90;;;;;;4895251;29;20519;-82
2023/10/06 08:56:07;;;;;;;7.60;6.90;;;24.20;99.90;;;;;;4894776;29;20470;-83
2023/10/06 08:58:37;;;;;;;7.37;6.67;;;24.30;99.90;;;;;;4899990;29;20493;-82
2023/10/06 09:01:06;;;;;;;10.03;7.50;;;24.70;99.90;;;;;;4898926;29;20462;-82
2023/10/06 09:03:38;;;;;;;8.47;7.70;;;24.90;99.90;;;;;;4898712;29;21060;-85
2023/10/06 09:06:11;;;;;;;11.37;10.27;;;25.40;99.90;;;;;;4900638;29;20563;-83
2023/10/06 09:08:41;;;;;;;11.20;10.17;;;25.60;99.90;;;;;;4899119;29;20501;-83
2023/10/06 09:11:11;;;;;;;10.40;9.80;;;26.00;99.90;;;;;;4897471;29;20523;-84
2023/10/06 09:13:41;;;;;;;10.27;9.27;;;26.10;99.90;;;;;;4897902;29;20920;-83
2023/10/06 09:16:11;;;;;;;12.17;10.97;;;26.60;99.90;;;;;;4896009;29;20459;-83
2023/10/06 09:18:40;;;;;;;10.23;9.23;;;26.90;99.90;;;;;;4900732;29;20479;-83
2023/10/06 09:21:15;;;;;;;10.57;9.47;;;27.20;99.90;;;;;;4900367;29;20463;-83
2023/10/06 09:23:44;;;;;;;11.47;10.37;;;27.50;99.90;;;;;;4898372;29;21002;-84
2023/10/06 09:26:15;;;;;;;9.73;9.00;;;27.50;99.90;;;;;;4895003;29;21156;-82
2023/10/06 09:28:53;;;;;;;10.30;9.40;;;27.80;99.90;;;;;;4896931;29;20479;-83
2023/10/06 09:31:36;;;;;;;9.97;9.17;;;27.40;99.90;;;;;;4897610;29;20996;-83
2023/10/06 09:34:07;;;;;;;9.60;8.70;;;27.60;99.90;;;;;;4896844;29;20881;-82
2023/10/06 09:36:37;;;;;;;8.47;7.77;;;27.60;99.90;;;;;;4898758;29;20983;-83
2023/10/06 09:39:17;;;;;;;10.20;9.40;;;27.80;99.90;;;;;;4897034;29;20480;-82
2023/10/06 09:41:48;;;;;;;9.30;8.40;;;28.00;99.90;;;;;;4897996;29;20469;-82
2023/10/06 09:44:19;;;;;;;9.73;9.03;;;27.80;99.90;;;;;;4897596;29;20517;-83
2023/10/06 09:46:56;;;;;;;9.20;8.40;;;27.10;99.90;;;;;;4895880;29;21300;-82
2023/10/06 09:49:26;;;;;;;10.30;9.43;;;26.50;99.90;;;;;;4898141;29;20462;-83
2023/10/06 09:51:56;;;;;;;9.60;8.77;;;26.00;99.90;;;;;;4898437;29;20479;-82
2023/10/06 09:54:25;;;;;;;10.77;9.70;;;25.40;99.90;;;;;;4897267;29;20479;-82
2023/10/06 09:56:55;;;;;;;12.13;10.90;;;25.00;99.90;;;;;;4898027;29;20505;-83
2023/10/06 09:59:26;;;;;;;9.73;8.93;;;25.10;99.90;;;;;;4901064;29;20460;-82
2023/10/06 10:01:56;;;;;;;9.20;8.50;;;25.00;99.90;;;;;;4900116;29;20532;-82
2023/10/06 10:04:30;;;;;;;8.60;7.90;;;24.90;99.90;;;;;;4899657;29;20459;-80
2023/10/06 10:07:02;;;;;;;8.63;7.83;;;25.00;99.90;;;;;;4897458;29;20508;-82
2023/10/06 10:09:34;;;;;;;9.87;8.53;;;25.00;99.90;;;;;;4896242;29;20830;-81
2023/10/06 10:12:19;;;;;;;8.67;7.80;;;25.10;99.90;;;;;;4896567;29;20799;-81
2023/10/06 10:15:00;;;;;;;15.20;11.70;;;25.30;99.90;;;;;;4896803;29;20469;-83
2023/10/06 10:17:36;;;;;;;10.03;9.07;;;25.40;99.90;;;;;;4897237;29;20485;-82
2023/10/06 10:20:09;;;;;;;9.10;8.50;;;25.50;99.90;;;;;;4896801;29;20821;-82
2023/10/06 10:22:40;;;;;;;9.10;8.40;;;25.50;99.90;;;;;;4898141;29;20459;-83
2023/10/06 10:25:13;;;;;;;8.67;7.90;;;25.40;99.90;;;;;;4893944;29;20813;-82
2023/10/06 10:28:13;;;;;;;9.50;8.73;;;25.40;99.90;;;;;;4896527;29;20480;-82
2023/10/06 10:30:56;;;;;;;8.67;7.87;;;25.60;99.90;;;;;;4895602;29;20498;-81
2023/10/06 10:33:29;;;;;;;9.13;8.03;;;25.70;99.90;;;;;;4898685;29;20498;-83
2023/10/06 10:36:23;;;;;;;7.93;7.40;;;25.80;99.90;;;;;;4898362;29;20454;-82
2023/10/06 10:39:03;;;;;;;8.60;7.73;;;26.00;99.90;;;;;;4897778;29;20495;-82
2023/10/06 10:41:36;;;;;;;8.07;7.50;;;26.30;99.90;;;;;;4897540;29;20518;-82
2023/10/06 10:44:11;;;;;;;8.03;7.43;;;26.40;99.90;;;;;;4894859;29;20459;-83
2023/10/06 10:46:56;;;;;;;7.77;7.20;;;26.50;99.90;;;;;;4896377;29;20483;-82
2023/10/06 10:49:25;;;;;;;7.97;7.47;;;26.50;99.90;;;;;;4898439;29;20455;-82
2023/10/06 10:51:57;;;;;;;9.10;8.40;;;26.40;99.90;;;;;;4901783;29;20552;-82
2023/10/06 10:54:28;;;;;;;8.50;7.80;;;26.20;99.90;;;;;;4900425;29;20527;-83
2023/10/06 10:57:02;;;;;;;8.87;8.30;;;26.00;99.90;;;;;;4895797;29;20483;-82
2023/10/06 11:00:12;;;;;;;8.87;8.30;;;26.00;99.90;;;;;;4896931;29;20547;-82
2023/10/06 11:02:45;;;;;;;7.37;6.97;;;25.90;99.90;;;;;;4895650;29;20475;-83
2023/10/06 11:05:13;;;;;;;9.60;8.90;;;26.00;99.90;;;;;;4900910;29;20456;-85
2023/10/06 11:07:54;;;;;;;10.40;9.90;;;26.00;99.90;;;;;;4896259;29;20236;-83
2023/10/06 11:10:23;;;;;;;9.13;8.63;;;25.80;99.90;;;;;;4899868;29;20467;-80
2023/10/06 11:12:52;;;;;;;8.93;8.33;;;26.10;99.90;;;;;;4893716;29;20457;-81
2023/10/06 11:15:27;;;;;;;9.20;8.60;;;25.90;99.90;;;;;;4898089;29;20456;-81
2023/10/06 11:17:58;;;;;;;9.57;8.77;;;25.50;99.90;;;;;;4895575;29;20483;-80
2023/10/06 11:20:33;;;;;;;9.30;8.80;;;25.20;99.90;;;;;;4897576;29;20582;-80
2023/10/06 11:23:03;;;;;;;11.63;10.53;;;25.00;99.90;;;;;;4896341;29;20475;-80
2023/10/06 11:25:33;;;;;;;10.40;9.50;;;24.90;99.90;;;;;;4896314;29;20932;-81
2023/10/06 11:28:03;;;;;;;9.83;9.13;;;24.80;99.90;;;;;;4889580;29;20514;-81
2023/10/06 11:30:33;;;;;;;10.17;9.47;;;24.80;99.90;;;;;;4898603;29;20459;-81
2023/10/06 11:33:05;;;;;;;10.23;9.63;;;24.70;99.90;;;;;;4895734;29;20897;-80
2023/10/06 11:35:37;;;;;;;10.17;9.37;;;24.80;99.90;;;;;;4897137;29;20487;-82
2023/10/06 11:38:08;;;;;;;9.97;9.17;;;24.80;99.90;;;;;;4899260;29;20487;-81
2023/10/06 11:40:37;;;;;;;10.30;9.50;;;24.70;99.90;;;;;;4900331;29;20455;-82
2023/10/06 11:43:11;;;;;;;10.40;9.70;;;24.40;99.90;;;;;;4900431;29;20467;-84
2023/10/06 11:45:41;;;;;;;9.00;8.20;;;24.50;99.90;;;;;;4891521;29;20483;-83
2023/10/06 11:48:28;;;;;;;9.30;8.50;;;24.30;99.90;;;;;;4894748;29;20551;-80
2023/10/06 11:51:06;;;;;;;9.50;8.80;;;24.30;99.90;;;;;;4897078;29;20448;-81
2023/10/06 11:53:40;;;;;;;11.47;10.63;;;24.40;99.90;;;;;;4901122;29;20455;-82
2023/10/06 11:59:04;;;;;;;9.43;8.70;;;24.40;99.90;;;;;;4900289;29;20461;-82
2023/10/06 12:01:33;;;;;;;10.17;9.37;;;24.50;99.90;;;;;;4900147;29;21084;-81
2023/10/06 12:04:26;;;;;;;9.83;9.13;;;24.50;99.90;;;;;;4900049;29;20464;-82
2023/10/06 12:06:55;;;;;;;10.27;9.50;;;24.30;99.90;;;;;;4898257;29;20562;-82
2023/10/06 12:09:24;;;;;;;9.73;8.93;;;24.20;99.90;;;;;;4900377;29;20644;-82
2023/10/06 12:11:55;;;;;;;10.10;9.30;;;24.20;99.90;;;;;;4902236;29;20461;-84
2023/10/06 12:14:25;;;;;;;9.83;8.87;;;24.30;99.90;;;;;;4900531;29;20503;-82
2023/10/06 12:16:54;;;;;;;9.77;8.97;;;24.30;99.90;;;;;;4894336;29;20479;-83
2023/10/06 12:19:58;;;;;;;9.10;8.40;;;24.40;99.90;;;;;;4899149;29;20614;-83
2023/10/06 12:22:33;;;;;;;9.40;8.60;;;24.40;99.00;;;;;;4900101;29;20508;-82
2023/10/06 12:25:10;;;;;;;8.60;7.73;;;24.40;97.70;;;;;;4894168;29;20458;-82
2023/10/06 12:27:38;;;;;;;8.43;7.80;;;24.20;95.20;;;;;;4898206;29;20498;-82
2023/10/06 12:30:09;;;;;;;8.03;7.40;;;24.10;94.90;;;;;;4896223;29;20463;-85
2023/10/06 12:32:37;;;;;;;9.90;9.10;;;24.10;95.00;;;;;;4896702;29;20475;-83
2023/10/06 12:35:08;;;;;;;8.70;8.10;;;24.20;96.20;;;;;;4897901;29;20553;-83
2023/10/06 12:37:41;;;;;;;9.17;8.47;;;24.40;98.10;;;;;;4899299;29;20455;-83
2023/10/06 12:40:13;;;;;;;10.00;9.10;;;24.40;98.60;;;;;;4898663;29;20543;-83
2023/10/06 12:42:43;;;;;;;8.80;7.90;;;24.20;97.30;;;;;;4896678;29;20471;-83
2023/10/06 12:45:17;;;;;;;8.80;8.10;;;24.20;97.60;;;;;;4898151;29;20489;-82
2023/10/06 12:47:47;;;;;;;8.53;7.87;;;24.10;97.00;;;;;;4895980;29;21000;-82
2023/10/06 12:50:19;;;;;;;8.30;7.50;;;24.20;98.60;;;;;;4898410;29;20466;-83
2023/10/06 12:52:51;;;;;;;8.70;7.77;;;24.20;98.00;;;;;;4898766;29;20515;-81
2023/10/06 12:55:24;;;;;;;9.83;7.77;;;24.20;96.90;;;;;;4898282;29;20561;-84
2023/10/06 12:57:54;;;;;;;7.57;6.97;;;24.10;96.50;;;;;;4897467;29;20484;-83
2023/10/06 13:00:27;;;;;;;9.77;7.70;;;24.20;98.20;;;;;;4901061;29;20452;-82
2023/10/06 13:02:57;;;;;;;8.97;8.17;;;24.10;96.40;;;;;;4896741;29;20455;-82
2023/10/06 13:05:26;;;;;;;8.60;7.90;;;24.00;97.30;;;;;;4896945;29;20464;-82
2023/10/06 13:07:57;;;;;;;9.17;8.37;;;24.10;98.20;;;;;;4900015;29;20487;-81
2023/10/06 13:10:28;;;;;;;7.70;7.20;;;24.20;98.60;;;;;;4899154;29;20458;-82
2023/10/06 13:12:56;;;;;;;7.77;7.30;;;24.20;99.30;;;;;;4899875;29;20489;-82
2023/10/06 13:15:29;;;;;;;8.73;8.03;;;24.30;99.90;;;;;;4898568;29;20478;-82
2023/10/06 13:18:01;;;;;;;9.50;8.73;;;24.40;99.90;;;;;;4899600;29;20490;-82